PILOTS ONLINE: 297    ATC ONLINE: 32

KHND

Henderson Executive Airport

Location

City Las Vegas
Country  United States
Latitude 35° 58' 22" N
Longitude 115° 8' 2" W
Elevation 2492 ft
Type Small Airport

Map

Weather

METAR
2014/09/01 10:56
KHND 011056Z 20010KT 10SM CLR 28/M03 A2982 RMK AO2 T02771027 SLP063
TAF
2014/09/01 06:21
TAF KHND 010520Z 0106/0206 18010KT P6SM SKC 
     FM011600 07007KT P6SM SKC 
     FM012200 16009KT P6SM SKC

Runways

17L/35R 5001 ft / 75 ft
17R/35L 6501 ft / 100 ft

Outbound flights

Callsign Flying to Pilot ATD/STD ETA Aircraft

Inbound flights

Callsign Flying from Pilot ATD ETA Aircraft